Time;durP1;ratioP1;P1;durP2;ratioP2;P2;SDS_P1;SDS_P2;PMS_P1;PMS_P2;Temp;Humidity;BMP_temperature;BMP_pressure;BME280_temperature;BME280_humidity;BME280_pressure;Samples;Min_cycle;Max_cycle;Signal;HPM_P1;HPM_P2
2022/12/30 00:01:08;;;;;;;8.55;0.90;;;6.20;99.90;;;;;;4978959;28;20050;-75
2022/12/30 00:03:35;;;;;;;7.80;1.20;;;6.20;99.90;;;;;;4987793;28;20037;-74
2022/12/30 00:06:07;;;;;;;9.52;1.52;;;6.20;99.90;;;;;;5001163;28;20033;-75
2022/12/30 00:08:46;;;;;;;12.13;1.70;;;6.20;99.90;;;;;;5028687;28;20034;-75
2022/12/30 00:11:19;;;;;;;12.73;1.60;;;6.20;99.90;;;;;;5005325;28;20292;-75
2022/12/30 00:34:06;;;;;;;11.10;1.50;;;5.80;99.90;;;;;;5016853;28;20050;-75
2022/12/30 00:36:34;;;;;;;12.30;1.50;;;5.80;99.90;;;;;;4996121;28;20385;-75
2022/12/30 00:39:00;;;;;;;13.38;1.90;;;5.80;99.90;;;;;;5002172;28;20042;-75
2022/12/30 00:44:12;;;;;;;15.98;1.55;;;5.70;99.90;;;;;;4999211;28;20050;-75
2022/12/30 00:46:41;;;;;;;7.63;1.75;;;5.70;99.90;;;;;;4966222;28;20030;-75
2022/12/30 00:57:23;;;;;;;9.18;1.00;;;5.60;99.90;;;;;;5003826;28;20034;-75
2022/12/30 00:59:49;;;;;;;11.50;1.63;;;5.50;99.90;;;;;;5015613;28;20523;-74
2022/12/30 01:02:16;;;;;;;12.27;2.00;;;5.50;99.90;;;;;;4993826;28;20371;-75
2022/12/30 01:04:42;;;;;;;8.55;1.35;;;5.50;99.90;;;;;;4986795;28;20030;-75
2022/12/30 01:07:09;;;;;;;9.55;1.58;;;5.50;99.90;;;;;;4998526;28;20033;-75
2022/12/30 01:09:36;;;;;;;10.43;1.35;;;5.50;99.90;;;;;;4997270;28;20549;-75
2022/12/30 01:12:09;;;;;;;14.93;1.58;;;5.50;99.90;;;;;;4964274;28;20041;-75
2022/12/30 01:14:44;;;;;;;8.73;1.08;;;5.50;99.90;;;;;;4981462;28;20481;-75
2022/12/30 01:17:14;;;;;;;11.95;1.60;;;5.50;99.90;;;;;;5016484;28;20037;-75
2022/12/30 01:19:41;;;;;;;11.10;1.48;;;5.50;99.90;;;;;;5015079;28;20503;-75
2022/12/30 01:22:08;;;;;;;11.50;1.50;;;5.50;99.90;;;;;;4989997;28;20497;-75
2022/12/30 01:24:35;;;;;;;8.55;1.20;;;5.40;99.90;;;;;;4994309;28;20041;-75
2022/12/30 01:27:03;;;;;;;10.07;1.70;;;5.40;99.90;;;;;;5000598;28;20411;-75
2022/12/30 01:29:38;;;;;;;11.43;2.40;;;5.40;99.90;;;;;;5000940;28;20042;-75
2022/12/30 01:32:10;;;;;;;12.98;2.13;;;5.40;99.90;;;;;;5009603;28;20891;-75
2022/12/30 01:34:37;;;;;;;17.77;1.65;;;5.40;99.90;;;;;;4985979;28;20523;-75
2022/12/30 01:37:05;;;;;;;7.82;1.08;;;5.40;99.90;;;;;;5000068;28;20034;-75
2022/12/30 01:39:31;;;;;;;8.18;1.33;;;5.40;99.90;;;;;;4995441;28;20054;-74
2022/12/30 01:41:58;;;;;;;11.02;1.63;;;5.40;99.90;;;;;;4990753;28;20045;-74
2022/12/30 01:44:52;;;;;;;9.38;1.80;;;5.30;99.90;;;;;;4983608;28;20045;-75
2022/12/30 01:47:24;;;;;;;12.75;1.15;;;5.30;99.90;;;;;;5001789;28;20477;-75
2022/12/30 01:49:59;;;;;;;10.05;1.15;;;5.30;99.90;;;;;;4997275;28;20417;-75
2022/12/30 01:52:26;;;;;;;9.20;1.67;;;5.30;99.90;;;;;;4970038;28;20050;-76
2022/12/30 01:55:01;;;;;;;8.13;0.95;;;5.30;99.90;;;;;;5001395;28;20038;-75
2022/12/30 01:57:28;;;;;;;9.85;1.52;;;5.20;99.90;;;;;;5000194;28;20477;-75
2022/12/30 01:59:55;;;;;;;11.80;1.33;;;5.20;99.90;;;;;;4988615;28;20053;-75
2022/12/30 02:02:21;;;;;;;9.55;0.98;;;5.20;99.90;;;;;;4980499;28;20053;-75
2022/12/30 02:04:48;;;;;;;5.50;1.15;;;5.20;99.90;;;;;;4999838;28;20042;-75
2022/12/30 02:07:35;;;;;;;9.55;0.88;;;5.20;99.90;;;;;;5003407;28;20030;-76
2022/12/30 02:10:02;;;;;;;7.90;1.10;;;5.20;99.90;;;;;;5009898;28;20034;-75
2022/12/30 02:12:28;;;;;;;11.63;2.13;;;5.10;99.90;;;;;;4993145;28;20432;-75
2022/12/30 02:14:56;;;;;;;10.63;1.52;;;5.10;99.90;;;;;;5004896;28;20041;-75
2022/12/30 02:17:54;;;;;;;12.05;1.60;;;5.10;99.90;;;;;;5006186;28;20037;-75
2022/12/30 02:20:51;;;;;;;7.20;0.75;;;5.10;99.90;;;;;;4996854;28;20485;-75
2022/12/30 02:24:00;;;;;;;7.60;1.10;;;5.10;99.90;;;;;;5018432;28;20354;-74
2022/12/30 02:26:55;;;;;;;11.52;2.00;;;5.10;99.90;;;;;;5008683;28;20045;-75
2022/12/30 02:29:36;;;;;;;7.80;2.03;;;5.10;99.90;;;;;;4987789;28;20026;-75
2022/12/30 02:32:11;;;;;;;9.88;1.30;;;5.10;99.90;;;;;;4993240;28;20513;-75
2022/12/30 02:34:52;;;;;;;11.40;1.15;;;5.10;99.90;;;;;;5006788;28;20050;-75
2022/12/30 02:37:33;;;;;;;9.65;1.60;;;5.00;99.90;;;;;;5022020;28;20037;-75
2022/12/30 02:40:23;;;;;;;5.55;0.93;;;5.00;99.90;;;;;;5015796;28;20034;-75
2022/12/30 02:45:58;;;;;;;15.18;1.33;;;5.00;99.90;;;;;;4994532;28;20493;-75
2022/12/30 02:48:28;;;;;;;9.82;1.30;;;5.00;99.90;;;;;;4988766;28;20046;-75
2022/12/30 02:53:42;;;;;;;9.48;1.13;;;4.90;99.90;;;;;;5000342;28;20049;-75
2022/12/30 02:56:09;;;;;;;13.38;1.50;;;5.00;99.90;;;;;;4983887;28;20057;-75
2022/12/30 02:58:44;;;;;;;5.75;1.40;;;5.00;99.90;;;;;;4985575;28;20042;-75
2022/12/30 03:04:25;;;;;;;14.70;2.55;;;5.00;99.90;;;;;;5018377;28;20033;-75
2022/12/30 03:07:08;;;;;;;8.85;1.00;;;5.00;99.90;;;;;;5002213;28;20037;-75
2022/12/30 03:11:12;;;;;;;10.82;1.55;;;5.00;99.90;;;;;;5019129;28;20105;-75
2022/12/30 03:12:44;;;;;;;13.45;1.85;;;4.90;99.90;;;;;;5003201;28;20056;-75
2022/12/30 03:15:19;;;;;;;8.02;1.48;;;4.90;99.90;;;;;;5016427;28;20507;-75
2022/12/30 03:17:47;;;;;;;13.05;1.13;;;4.90;99.90;;;;;;5003936;28;20044;-75
2022/12/30 03:20:17;;;;;;;13.73;1.38;;;4.90;99.90;;;;;;4996253;28;20520;-75
2022/12/30 03:28:21;;;;;;;12.23;1.20;;;4.80;99.90;;;;;;5004775;28;20041;-75
2022/12/30 03:31:00;;;;;;;17.92;2.10;;;4.80;99.90;;;;;;4977433;28;20034;-75
2022/12/30 03:33:30;;;;;;;7.38;1.17;;;4.80;99.90;;;;;;5000607;28;20049;-75
2022/12/30 03:36:08;;;;;;;7.55;1.52;;;4.80;99.90;;;;;;4985710;28;20824;-75
2022/12/30 03:38:39;;;;;;;10.02;1.15;;;4.70;99.90;;;;;;4984149;28;20519;-75
2022/12/30 03:41:07;;;;;;;8.80;1.40;;;4.70;99.90;;;;;;4988343;28;20033;-75
2022/12/30 03:43:34;;;;;;;7.63;1.50;;;4.70;99.90;;;;;;4984194;28;20049;-75
2022/12/30 03:46:01;;;;;;;18.02;2.28;;;4.80;99.90;;;;;;5004440;28;20030;-75
2022/12/30 03:48:29;;;;;;;9.13;1.70;;;4.80;99.90;;;;;;5001884;28;20052;-75
2022/12/30 03:50:55;;;;;;;11.85;1.90;;;4.80;99.90;;;;;;4960990;28;20496;-76
2022/12/30 03:53:22;;;;;;;18.30;2.25;;;4.70;99.90;;;;;;4986923;28;20528;-75
2022/12/30 03:55:51;;;;;;;14.00;2.05;;;4.80;99.90;;;;;;5003517;28;20061;-75
2022/12/30 03:58:18;;;;;;;12.52;1.55;;;4.80;99.90;;;;;;4997068;28;20085;-76
2022/12/30 04:00:45;;;;;;;18.70;2.03;;;4.70;99.90;;;;;;5009019;28;20847;-75
2022/12/30 04:03:12;;;;;;;9.48;0.85;;;4.80;99.90;;;;;;4985396;28;20109;-75
2022/12/30 04:05:42;;;;;;;12.43;2.40;;;4.70;99.90;;;;;;5003589;28;20049;-75
2022/12/30 04:08:09;;;;;;;8.98;0.90;;;4.70;99.90;;;;;;4998864;28;20513;-75
2022/12/30 04:10:35;;;;;;;6.78;1.20;;;4.70;99.90;;;;;;4992418;28;20043;-75
2022/12/30 04:13:02;;;;;;;9.07;1.30;;;4.70;99.90;;;;;;4998406;28;20041;-75
2022/12/30 04:15:29;;;;;;;13.27;1.00;;;4.60;99.90;;;;;;5003509;28;20045;-75
2022/12/30 04:17:55;;;;;;;9.93;1.10;;;4.60;99.90;;;;;;5003406;28;20033;-76
2022/12/30 04:20:22;;;;;;;8.65;2.25;;;4.60;99.90;;;;;;5011740;28;20038;-75
2022/12/30 04:22:49;;;;;;;10.40;1.40;;;4.70;99.90;;;;;;4997054;28;20796;-75
2022/12/30 04:25:15;;;;;;;13.90;1.20;;;4.70;99.90;;;;;;4993395;28;20030;-76
2022/12/30 04:27:42;;;;;;;11.98;1.08;;;4.70;99.90;;;;;;4999244;28;20044;-75
2022/12/30 04:30:09;;;;;;;13.32;2.10;;;4.60;99.90;;;;;;4991182;28;20400;-75
2022/12/30 04:32:36;;;;;;;11.73;1.42;;;4.60;99.90;;;;;;4980560;28;20056;-76
2022/12/30 04:35:03;;;;;;;8.25;1.45;;;4.60;99.90;;;;;;5002410;28;20060;-76
2022/12/30 04:37:29;;;;;;;14.25;1.20;;;4.50;99.90;;;;;;5012379;28;20026;-76
2022/12/30 04:39:56;;;;;;;9.27;1.88;;;4.50;99.90;;;;;;5013768;28;20030;-76
2022/12/30 04:42:22;;;;;;;7.68;1.67;;;4.50;99.90;;;;;;4996255;28;20045;-76
2022/12/30 04:44:48;;;;;;;10.02;1.20;;;4.50;99.90;;;;;;5000634;28;20046;-76
2022/12/30 04:47:15;;;;;;;8.75;1.10;;;4.50;99.90;;;;;;5002942;28;20034;-76
2022/12/30 04:49:41;;;;;;;8.45;0.90;;;4.40;99.90;;;;;;5000272;28;20042;-75
2022/12/30 04:52:07;;;;;;;11.55;1.08;;;4.40;99.90;;;;;;4991636;28;20057;-76
2022/12/30 04:54:34;;;;;;;8.98;1.02;;;4.40;99.90;;;;;;4985639;28;20042;-76
2022/12/30 04:57:00;;;;;;;9.63;1.50;;;4.40;99.90;;;;;;5005315;28;20501;-76
2022/12/30 04:59:27;;;;;;;10.13;1.35;;;4.30;99.90;;;;;;4996028;28;20026;-77
2022/12/30 05:01:53;;;;;;;19.70;2.85;;;4.30;99.90;;;;;;4992589;28;20045;-76
2022/12/30 05:04:19;;;;;;;7.57;1.40;;;4.30;99.90;;;;;;5015590;28;20493;-76
2022/12/30 05:06:46;;;;;;;12.40;1.60;;;4.20;99.90;;;;;;5005531;28;20045;-77
2022/12/30 05:09:12;;;;;;;8.52;0.82;;;4.30;99.90;;;;;;5012613;28;20044;-76
2022/12/30 05:11:38;;;;;;;12.07;1.73;;;4.20;99.90;;;;;;4990330;28;20041;-76
2022/12/30 05:14:05;;;;;;;10.13;1.38;;;4.20;99.90;;;;;;5014776;28;20405;-76
2022/12/30 05:16:31;;;;;;;7.85;1.20;;;4.20;99.90;;;;;;5008239;28;20068;-76
2022/12/30 05:18:57;;;;;;;8.82;1.00;;;4.20;99.90;;;;;;4967454;28;20081;-75
2022/12/30 05:21:24;;;;;;;9.00;1.05;;;4.20;99.90;;;;;;4991257;28;20037;-77
2022/12/30 05:26:35;;;;;;;9.43;1.42;;;4.20;99.90;;;;;;5007532;28;20042;-76
2022/12/30 05:29:01;;;;;;;13.38;1.70;;;4.20;99.90;;;;;;4988568;28;20034;-76
2022/12/30 05:31:28;;;;;;;10.25;1.63;;;4.20;99.90;;;;;;4995518;28;20390;-75
2022/12/30 05:33:54;;;;;;;8.77;1.42;;;4.20;99.90;;;;;;5019143;28;20070;-77
2022/12/30 05:36:20;;;;;;;8.38;1.27;;;4.20;99.90;;;;;;5018569;28;20030;-76
2022/12/30 05:38:47;;;;;;;8.75;2.15;;;4.20;99.90;;;;;;5000453;28;20492;-76
2022/12/30 05:41:13;;;;;;;12.93;1.25;;;4.20;99.90;;;;;;4992242;28;20042;-76
2022/12/30 05:43:40;;;;;;;17.90;1.40;;;4.20;99.90;;;;;;4981562;28;20053;-76
2022/12/30 05:46:06;;;;;;;7.65;1.45;;;4.20;99.90;;;;;;4986011;28;20040;-77
2022/12/30 05:48:33;;;;;;;13.65;1.33;;;4.20;99.90;;;;;;4968916;28;20041;-76
2022/12/30 05:50:59;;;;;;;13.30;1.85;;;4.20;99.90;;;;;;4970136;28;20532;-76
2022/12/30 05:53:26;;;;;;;14.52;1.70;;;4.20;99.90;;;;;;4990169;28;20391;-76
2022/12/30 05:55:52;;;;;;;11.57;1.10;;;4.20;99.90;;;;;;5006210;28;20042;-76
2022/12/30 05:58:19;;;;;;;21.27;2.17;;;4.20;99.90;;;;;;5006566;28;20030;-76
2022/12/30 06:00:46;;;;;;;23.75;1.85;;;4.30;99.90;;;;;;4996281;28;20519;-75
2022/12/30 06:03:12;;;;;;;14.00;2.00;;;4.30;99.90;;;;;;4998431;28;20599;-76
2022/12/30 06:05:40;;;;;;;14.13;2.03;;;4.30;99.90;;;;;;5006773;28;20034;-76
2022/12/30 06:08:07;;;;;;;11.13;1.92;;;4.30;99.90;;;;;;5022797;28;20470;-76
2022/12/30 06:10:33;;;;;;;13.15;2.72;;;4.40;99.90;;;;;;4980344;28;20042;-75
2022/12/30 06:12:59;;;;;;;15.13;2.67;;;4.40;99.90;;;;;;5003248;28;20092;-76
2022/12/30 06:15:26;;;;;;;14.30;2.72;;;4.40;99.90;;;;;;5005821;28;20041;-76
2022/12/30 06:17:53;;;;;;;13.10;2.10;;;4.40;99.90;;;;;;4989492;28;20034;-76
2022/12/30 06:20:19;;;;;;;16.70;2.70;;;4.40;99.90;;;;;;5016255;28;20046;-75
2022/12/30 06:22:46;;;;;;;18.77;1.77;;;4.40;99.90;;;;;;4984606;28;20061;-76
2022/12/30 06:25:12;;;;;;;17.85;2.35;;;4.40;99.90;;;;;;5004682;28;20512;-76
2022/12/30 06:27:39;;;;;;;18.55;2.10;;;4.50;99.90;;;;;;4972486;28;20030;-76
2022/12/30 06:30:06;;;;;;;12.85;1.58;;;4.50;99.90;;;;;;4986622;28;20040;-77
2022/12/30 06:32:32;;;;;;;13.25;1.63;;;4.50;99.90;;;;;;4984031;28;20136;-75
2022/12/30 06:34:59;;;;;;;11.35;2.45;;;4.50;99.90;;;;;;5019772;28;20048;-75
2022/12/30 06:37:26;;;;;;;14.30;2.28;;;4.50;99.90;;;;;;5024809;28;20029;-75
2022/12/30 06:39:52;;;;;;;18.00;2.13;;;4.50;99.90;;;;;;5002048;28;20029;-75
2022/12/30 06:42:19;;;;;;;12.32;2.38;;;4.50;99.90;;;;;;5013040;28;20034;-76
2022/12/30 06:44:45;;;;;;;21.08;2.25;;;4.50;99.90;;;;;;5005851;28;20615;-76
2022/12/30 06:47:12;;;;;;;14.20;2.08;;;4.50;99.90;;;;;;5008045;28;20034;-75
2022/12/30 06:49:38;;;;;;;11.93;2.20;;;4.50;99.90;;;;;;5004615;28;20034;-75
2022/12/30 06:52:05;;;;;;;9.43;1.48;;;4.60;99.90;;;;;;4995424;28;20036;-75
2022/12/30 06:54:32;;;;;;;26.38;3.50;;;4.50;99.90;;;;;;4999824;28;20038;-75
2022/12/30 06:56:58;;;;;;;13.73;2.53;;;4.60;99.90;;;;;;5006338;28;20026;-75
2022/12/30 06:59:25;;;;;;;16.33;2.45;;;4.50;99.90;;;;;;5004177;28;20041;-76
2022/12/30 07:01:51;;;;;;;11.98;2.05;;;4.50;99.90;;;;;;4994025;28;20540;-76
2022/12/30 07:04:17;;;;;;;15.85;2.53;;;4.60;99.90;;;;;;5021754;28;20056;-76
2022/12/30 07:06:44;;;;;;;17.92;2.35;;;4.50;99.90;;;;;;5005755;28;20029;-76
2022/12/30 07:09:10;;;;;;;9.93;1.50;;;4.50;99.90;;;;;;4960343;28;20042;-76
2022/12/30 07:11:36;;;;;;;19.35;2.00;;;4.60;99.90;;;;;;4965385;28;20405;-76
2022/12/30 07:14:03;;;;;;;17.55;3.90;;;4.60;99.90;;;;;;4988459;28;20042;-76
2022/12/30 07:16:29;;;;;;;23.77;6.22;;;4.60;99.90;;;;;;5006770;28;20030;-76
2022/12/30 07:18:56;;;;;;;21.00;4.18;;;4.50;99.90;;;;;;5004729;28;20041;-75
2022/12/30 07:21:22;;;;;;;15.10;2.70;;;4.60;99.90;;;;;;4967239;28;20034;-76
2022/12/30 07:23:48;;;;;;;14.68;2.25;;;4.50;99.90;;;;;;4971404;28;20038;-75
2022/12/30 07:26:15;;;;;;;18.02;2.55;;;4.50;99.90;;;;;;4971176;28;20034;-76
2022/12/30 07:28:41;;;;;;;12.25;2.20;;;4.50;99.90;;;;;;4984932;28;20408;-76
2022/12/30 07:31:07;;;;;;;14.68;2.35;;;4.50;99.90;;;;;;4961469;28;20118;-76
2022/12/30 07:33:34;;;;;;;13.80;2.75;;;4.60;99.90;;;;;;5020878;28;20047;-76
2022/12/30 07:36:00;;;;;;;7.47;1.75;;;4.60;99.90;;;;;;5006518;28;20048;-76
2022/12/30 07:38:27;;;;;;;21.67;3.53;;;4.60;99.90;;;;;;4996869;28;20046;-75
2022/12/30 07:40:53;;;;;;;19.48;3.55;;;4.60;99.90;;;;;;4999223;28;20598;-77
2022/12/30 07:43:20;;;;;;;15.98;2.25;;;4.60;99.90;;;;;;5017231;28;20061;-77
2022/12/30 07:45:46;;;;;;;13.60;2.25;;;4.70;99.90;;;;;;5007123;28;20041;-76
2022/12/30 07:48:13;;;;;;;11.73;2.03;;;4.70;99.90;;;;;;5003666;28;20026;-76
2022/12/30 07:50:39;;;;;;;17.98;2.78;;;4.70;99.90;;;;;;5011534;28;20018;-76
2022/12/30 07:53:06;;;;;;;15.80;2.40;;;4.70;99.90;;;;;;4979558;28;20901;-75
2022/12/30 07:55:32;;;;;;;13.20;2.55;;;4.70;99.90;;;;;;5001592;28;20520;-76
2022/12/30 07:57:59;;;;;;;14.77;2.85;;;4.70;99.90;;;;;;5004467;28;20029;-76
2022/12/30 08:00:25;;;;;;;10.05;2.03;;;4.80;99.90;;;;;;5014692;28;20523;-76
2022/12/30 08:02:52;;;;;;;9.15;2.45;;;4.80;99.90;;;;;;5003216;28;20038;-76
2022/12/30 08:05:18;;;;;;;13.35;2.50;;;4.80;99.90;;;;;;5020030;28;20100;-75
2022/12/30 08:07:44;;;;;;;18.00;2.50;;;4.90;99.90;;;;;;5018631;28;20033;-76
2022/12/30 08:10:11;;;;;;;15.48;2.33;;;5.00;99.90;;;;;;4999818;28;20034;-75
2022/12/30 08:12:37;;;;;;;15.02;3.50;;;5.00;99.90;;;;;;4981052;28;20038;-75
2022/12/30 08:15:04;;;;;;;19.35;2.95;;;5.10;99.90;;;;;;4981309;28;20049;-76
2022/12/30 08:17:31;;;;;;;13.43;2.58;;;5.10;99.90;;;;;;4972985;28;20038;-75
2022/12/30 08:19:57;;;;;;;13.98;3.13;;;5.20;99.90;;;;;;4999786;28;20034;-75
2022/12/30 08:22:24;;;;;;;17.20;2.83;;;5.20;99.90;;;;;;4959978;28;20033;-76
2022/12/30 08:24:51;;;;;;;13.55;3.17;;;5.20;99.90;;;;;;5002659;28;20034;-75
2022/12/30 08:27:18;;;;;;;20.80;4.97;;;5.30;99.90;;;;;;4981780;28;20030;-75
2022/12/30 08:29:45;;;;;;;20.42;5.55;;;5.30;99.90;;;;;;4998300;28;20042;-76
2022/12/30 08:32:12;;;;;;;12.75;3.63;;;5.30;99.90;;;;;;4994930;28;20398;-76
2022/12/30 08:34:39;;;;;;;18.88;3.95;;;5.30;99.90;;;;;;5004660;28;20049;-77
2022/12/30 08:37:05;;;;;;;19.95;3.78;;;5.40;99.90;;;;;;5004921;28;20040;-76
2022/12/30 08:39:32;;;;;;;17.08;3.13;;;5.40;99.90;;;;;;4963798;28;20038;-76
2022/12/30 08:41:58;;;;;;;18.63;3.47;;;5.50;99.90;;;;;;4990184;28;20030;-76
2022/12/30 08:44:26;;;;;;;12.13;3.42;;;5.50;99.90;;;;;;4986313;28;20077;-76
2022/12/30 08:46:53;;;;;;;18.23;3.33;;;5.60;99.90;;;;;;4968309;28;20053;-76
2022/12/30 08:49:21;;;;;;;16.42;3.13;;;5.60;99.90;;;;;;4990339;28;20034;-76
2022/12/30 08:51:48;;;;;;;14.07;3.40;;;5.60;99.90;;;;;;4992946;28;20038;-76
2022/12/30 08:54:14;;;;;;;13.48;3.28;;;5.70;99.90;;;;;;4980290;28;20051;-76
2022/12/30 08:56:41;;;;;;;16.45;4.22;;;5.70;99.90;;;;;;4996898;28;20129;-77
2022/12/30 08:59:10;;;;;;;16.85;3.28;;;5.80;99.90;;;;;;5000196;28;20025;-76
2022/12/30 09:01:38;;;;;;;17.48;4.10;;;5.80;99.90;;;;;;4989803;28;20905;-76
2022/12/30 09:04:06;;;;;;;22.67;4.40;;;5.90;99.90;;;;;;5017835;28;20026;-76
2022/12/30 09:06:38;;;;;;;17.48;3.25;;;5.90;99.90;;;;;;4988438;28;20037;-76
2022/12/30 09:09:07;;;;;;;16.20;3.67;;;5.90;99.90;;;;;;5001630;28;20033;-76
2022/12/30 09:11:37;;;;;;;15.85;3.08;;;6.00;99.90;;;;;;4979003;28;20072;-76
2022/12/30 09:14:06;;;;;;;13.57;3.45;;;6.00;99.90;;;;;;4994290;28;20048;-76
2022/12/30 09:16:34;;;;;;;15.15;3.60;;;6.10;99.90;;;;;;4984185;28;20042;-76
2022/12/30 09:19:00;;;;;;;13.23;2.70;;;6.10;99.90;;;;;;4999473;28;20071;-76
2022/12/30 09:21:28;;;;;;;12.35;3.50;;;6.20;99.90;;;;;;4999265;28;20034;-77
2022/12/30 09:23:54;;;;;;;12.80;2.92;;;6.20;99.90;;;;;;5011003;28;20046;-75
2022/12/30 09:26:23;;;;;;;15.77;3.58;;;6.30;99.90;;;;;;4990572;28;20456;-77
2022/12/30 09:28:50;;;;;;;16.67;2.90;;;6.30;99.90;;;;;;4980946;28;20037;-75
2022/12/30 09:31:17;;;;;;;12.98;3.17;;;6.30;99.90;;;;;;4957950;28;20041;-76
2022/12/30 09:33:44;;;;;;;16.45;3.75;;;6.40;99.90;;;;;;5017341;28;20034;-76
2022/12/30 09:36:11;;;;;;;14.15;3.90;;;6.40;99.90;;;;;;5020050;28;20485;-75
2022/12/30 09:38:38;;;;;;;20.52;5.65;;;6.40;99.90;;;;;;4999494;28;20129;-75
2022/12/30 09:41:16;;;;;;;15.93;4.05;;;6.40;99.90;;;;;;5011613;28;20030;-74
2022/12/30 09:43:52;;;;;;;11.48;2.75;;;6.50;99.90;;;;;;4981265;28;20054;-75
2022/12/30 09:46:34;;;;;;;9.68;2.47;;;6.50;99.90;;;;;;4994165;28;20034;-76
2022/12/30 09:49:17;;;;;;;14.32;2.88;;;6.60;99.90;;;;;;4961760;28;20030;-74
2022/12/30 09:51:48;;;;;;;13.15;3.60;;;6.60;99.90;;;;;;4992955;28;20524;-75
2022/12/30 09:54:21;;;;;;;7.97;2.25;;;6.60;99.90;;;;;;5000197;28;20544;-75
2022/12/30 09:56:50;;;;;;;14.10;3.08;;;6.70;99.90;;;;;;5014543;28;20034;-75
2022/12/30 09:59:21;;;;;;;14.20;2.10;;;6.70;99.90;;;;;;5001131;28;20045;-75
2022/12/30 10:01:59;;;;;;;7.35;2.10;;;6.70;99.90;;;;;;5006375;28;20038;-76
2022/12/30 10:04:33;;;;;;;10.05;1.92;;;6.80;99.90;;;;;;4978063;28;21129;-74
2022/12/30 10:07:02;;;;;;;9.38;2.17;;;6.80;99.90;;;;;;5001723;28;20038;-75
2022/12/30 10:09:43;;;;;;;9.88;1.60;;;6.80;99.90;;;;;;4993116;28;20392;-75
2022/12/30 10:12:42;;;;;;;9.40;1.85;;;6.90;99.90;;;;;;4959004;28;20038;-75
2022/12/30 10:15:30;;;;;;;5.68;1.13;;;6.90;99.90;;;;;;5000064;28;20025;-76
2022/12/30 10:17:59;;;;;;;12.18;2.05;;;7.00;99.90;;;;;;4997889;28;20042;-76
2022/12/30 10:20:38;;;;;;;4.68;1.35;;;7.00;99.90;;;;;;4996449;28;20049;-76
2022/12/30 10:23:34;;;;;;;7.82;0.90;;;7.00;99.90;;;;;;5001108;28;20030;-77
2022/12/30 10:26:20;;;;;;;8.05;1.48;;;7.10;99.90;;;;;;4997978;28;20745;-77
2022/12/30 10:28:56;;;;;;;8.23;1.38;;;7.10;99.90;;;;;;5003755;28;20060;-75
2022/12/30 10:31:26;;;;;;;5.63;0.98;;;7.20;99.90;;;;;;5011293;28;20030;-75
2022/12/30 10:34:10;;;;;;;5.53;0.77;;;7.20;99.90;;;;;;5011107;28;20034;-75
2022/12/30 10:36:58;;;;;;;7.93;0.90;;;7.20;99.90;;;;;;5003496;28;20421;-75
2022/12/30 10:39:41;;;;;;;6.10;1.08;;;7.20;99.90;;;;;;4992679;28;20497;-75
2022/12/30 10:42:35;;;;;;;6.18;1.15;;;7.20;99.90;;;;;;5010091;28;20029;-75
2022/12/30 10:45:20;;;;;;;6.63;0.90;;;7.30;99.90;;;;;;4985802;28;20061;-74
2022/12/30 10:48:17;;;;;;;8.02;0.80;;;7.30;99.90;;;;;;5002716;28;20073;-75
2022/12/30 10:50:48;;;;;;;10.07;1.23;;;7.30;99.90;;;;;;4992693;28;20386;-75
2022/12/30 10:53:26;;;;;;;4.35;0.73;;;7.40;99.90;;;;;;5017532;28;20025;-75
2022/12/30 10:56:01;;;;;;;3.38;0.65;;;7.40;99.90;;;;;;5004402;28;20060;-75
2022/12/30 10:58:43;;;;;;;7.47;0.82;;;7.40;99.90;;;;;;5003440;28;20381;-75
2022/12/30 11:01:22;;;;;;;10.65;1.38;;;7.50;99.90;;;;;;4977553;28;20021;-74
2022/12/30 11:03:51;;;;;;;4.47;0.98;;;7.50;99.90;;;;;;5003354;28;20033;-75
2022/12/30 11:06:21;;;;;;;4.53;0.70;;;7.50;99.90;;;;;;5019201;28;20707;-74
2022/12/30 11:08:49;;;;;;;5.22;1.10;;;7.50;99.90;;;;;;5018621;28;20408;-74
2022/12/30 11:11:18;;;;;;;5.45;0.65;;;7.60;99.90;;;;;;4964845;28;20029;-74
2022/12/30 11:16:40;;;;;;;7.00;1.00;;;7.60;99.90;;;;;;5002626;28;20038;-74
2022/12/30 11:19:23;;;;;;;4.30;0.75;;;7.60;99.90;;;;;;5005077;28;20030;-74
2022/12/30 11:21:54;;;;;;;6.07;1.50;;;7.60;99.90;;;;;;5011482;28;20038;-74
2022/12/30 11:24:21;;;;;;;6.13;0.63;;;7.70;99.90;;;;;;5018561;28;20042;-74
2022/12/30 11:26:49;;;;;;;4.93;0.70;;;7.70;99.90;;;;;;5017413;28;20101;-74
2022/12/30 11:29:19;;;;;;;5.30;0.77;;;7.70;99.90;;;;;;5004428;28;20037;-73
2022/12/30 11:31:50;;;;;;;5.10;0.85;;;7.70;99.90;;;;;;4978522;28;20037;-74
2022/12/30 11:34:29;;;;;;;5.45;0.75;;;7.70;99.90;;;;;;4985868;28;20033;-74
2022/12/30 11:37:15;;;;;;;8.65;3.28;;;7.80;99.90;;;;;;5017415;28;20447;-73
2022/12/30 11:39:42;;;;;;;7.43;1.58;;;7.80;99.90;;;;;;5000910;28;20041;-74
2022/12/30 11:42:30;;;;;;;5.75;1.00;;;7.80;99.90;;;;;;4980412;28;20030;-73
2022/12/30 11:45:20;;;;;;;6.65;0.90;;;7.80;99.90;;;;;;5001956;28;20042;-73
2022/12/30 11:47:47;;;;;;;3.95;0.70;;;7.80;99.90;;;;;;5002976;28;20030;-73
2022/12/30 11:50:17;;;;;;;5.68;0.50;;;7.80;99.90;;;;;;4995710;28;20523;-73
2022/12/30 11:52:52;;;;;;;5.45;1.00;;;7.90;99.90;;;;;;4997403;28;20022;-73
2022/12/30 11:55:24;;;;;;;5.35;0.60;;;7.90;99.90;;;;;;4990160;28;20029;-73
2022/12/30 11:57:53;;;;;;;4.53;0.70;;;7.90;99.90;;;;;;4982671;28;20116;-73
2022/12/30 12:00:20;;;;;;;5.85;0.90;;;7.90;99.90;;;;;;5015285;28;20030;-73
2022/12/30 12:02:49;;;;;;;4.55;0.70;;;7.90;99.90;;;;;;4995377;28;20037;-73
2022/12/30 12:05:30;;;;;;;6.82;0.70;;;7.90;99.90;;;;;;5003943;28;20421;-72
2022/12/30 12:08:05;;;;;;;6.55;0.82;;;7.90;99.90;;;;;;4996091;28;20053;-74
2022/12/30 12:10:36;;;;;;;6.18;0.70;;;7.90;99.90;;;;;;4995440;28;20041;-74
2022/12/30 12:13:12;;;;;;;3.73;1.27;;;7.90;99.90;;;;;;5015799;28;20042;-74
2022/12/30 12:15:51;;;;;;;8.07;2.55;;;8.00;99.90;;;;;;5000547;28;20046;-74
2022/12/30 12:18:20;;;;;;;4.80;0.70;;;8.00;99.90;;;;;;5014316;28;20042;-73
2022/12/30 12:21:00;;;;;;;8.75;1.15;;;8.00;99.90;;;;;;4975927;28;20049;-73
2022/12/30 12:23:57;;;;;;;4.90;1.10;;;8.00;99.90;;;;;;4965872;28;20482;-75
2022/12/30 12:26:42;;;;;;;14.90;4.45;;;8.10;99.90;;;;;;4997400;28;20385;-75
2022/12/30 12:29:13;;;;;;;4.47;1.42;;;8.10;99.90;;;;;;5018072;28;20032;-75
2022/12/30 12:31:57;;;;;;;7.90;1.40;;;8.20;99.90;;;;;;4995755;28;20030;-73
2022/12/30 12:34:30;;;;;;;7.80;0.80;;;8.20;99.90;;;;;;4998320;28;20064;-73
2022/12/30 12:37:36;;;;;;;10.40;1.23;;;8.20;99.90;;;;;;5016413;28;20401;-72
2022/12/30 12:40:31;;;;;;;4.13;0.68;;;8.20;99.90;;;;;;5013464;28;20037;-72
2022/12/30 12:43:20;;;;;;;3.85;0.95;;;8.30;99.90;;;;;;4980639;28;20026;-72
2022/12/30 12:46:11;;;;;;;4.68;1.65;;;8.30;99.90;;;;;;5000602;28;20034;-73
2022/12/30 12:48:51;;;;;;;7.00;0.90;;;8.30;99.90;;;;;;4967336;28;20045;-73
2022/12/30 12:51:45;;;;;;;5.30;0.60;;;8.40;99.90;;;;;;4993765;28;20497;-73
2022/12/30 12:54:28;;;;;;;3.92;0.60;;;8.40;99.90;;;;;;4995889;28;20042;-73
2022/12/30 12:57:03;;;;;;;5.50;0.90;;;8.40;99.90;;;;;;5004788;28;20404;-73
2022/12/30 12:59:45;;;;;;;7.32;1.30;;;8.40;99.90;;;;;;5000680;28;20473;-73
2022/12/30 13:02:30;;;;;;;5.38;0.90;;;8.40;99.90;;;;;;4964274;28;20033;-74
2022/12/30 13:05:07;;;;;;;4.05;0.65;;;8.30;99.90;;;;;;5002351;28;20354;-75
2022/12/30 13:07:53;;;;;;;5.65;1.10;;;8.40;99.90;;;;;;5001750;28;20775;-74
2022/12/30 13:10:29;;;;;;;7.25;1.38;;;8.30;99.90;;;;;;5012006;28;20401;-74
2022/12/30 13:13:07;;;;;;;5.45;1.13;;;8.30;99.90;;;;;;4993936;28;20050;-76
2022/12/30 13:15:42;;;;;;;7.35;1.25;;;8.30;99.90;;;;;;4994231;28;20045;-75
2022/12/30 13:18:18;;;;;;;8.40;1.15;;;8.30;99.90;;;;;;5002349;28;20030;-74
2022/12/30 13:20:49;;;;;;;5.45;0.80;;;8.20;99.90;;;;;;4973900;28;20038;-75
2022/12/30 13:23:19;;;;;;;5.22;0.60;;;8.20;99.90;;;;;;4996257;28;20488;-75
2022/12/30 13:25:51;;;;;;;4.03;1.23;;;8.10;99.90;;;;;;5014048;28;20029;-75
2022/12/30 13:28:26;;;;;;;6.97;1.38;;;8.10;99.90;;;;;;4981140;28;20037;-75
2022/12/30 13:31:08;;;;;;;4.63;0.55;;;8.10;99.90;;;;;;4991715;28;20033;-75
2022/12/30 13:33:58;;;;;;;7.00;0.90;;;8.10;99.90;;;;;;5011725;28;20034;-75
2022/12/30 13:36:39;;;;;;;7.40;0.70;;;8.10;99.90;;;;;;4982447;28;20476;-75
2022/12/30 13:39:27;;;;;;;4.28;0.65;;;8.10;99.90;;;;;;4981759;28;20048;-75
2022/12/30 13:42:35;;;;;;;8.02;0.93;;;8.00;99.90;;;;;;4989076;28;20049;-74
2022/12/30 13:45:11;;;;;;;8.52;1.08;;;8.00;99.90;;;;;;5016780;28;20390;-75
2022/12/30 13:47:42;;;;;;;4.22;0.50;;;8.00;99.90;;;;;;5016233;28;20037;-75
2022/12/30 13:50:19;;;;;;;8.90;0.90;;;8.00;99.90;;;;;;5013181;28;20137;-75
2022/12/30 13:52:49;;;;;;;7.45;0.65;;;8.00;99.90;;;;;;5013547;28;20141;-75
2022/12/30 13:55:27;;;;;;;7.22;2.15;;;7.90;99.90;;;;;;4982171;28;20436;-76
2022/12/30 13:58:19;;;;;;;6.38;0.73;;;8.00;99.90;;;;;;5015680;28;20030;-75
2022/12/30 14:00:45;;;;;;;8.63;0.90;;;8.00;99.90;;;;;;4993329;28;20049;-75
2022/12/30 14:03:24;;;;;;;5.68;1.13;;;7.90;99.90;;;;;;4980717;28;20036;-75
2022/12/30 14:06:02;;;;;;;7.25;1.20;;;7.90;99.90;;;;;;4977036;28;20031;-75
2022/12/30 14:08:29;;;;;;;3.45;0.82;;;7.90;99.90;;;;;;4968944;28;20409;-75